createdAt,value
2019-04-06T00:00:46.921Z,15.17
2019-04-06T00:01:46.677Z,15.09
2019-04-06T00:02:46.708Z,15.14
2019-04-06T00:03:47.163Z,15.1
2019-04-06T00:04:47.014Z,15.09
2019-04-06T00:05:46.770Z,15
2019-04-06T00:06:47.054Z,14.97
2019-04-06T00:07:46.549Z,15
2019-04-06T00:08:46.831Z,15
2019-04-06T00:09:46.847Z,14.89
2019-04-06T00:10:46.616Z,14.94
2019-04-06T00:11:47.164Z,14.88
2019-04-06T00:12:46.654Z,14.88
2019-04-06T00:13:46.947Z,14.79
2019-04-06T00:14:46.694Z,14.79
2019-04-06T00:15:46.716Z,14.82
2019-04-06T00:16:47.006Z,14.84
2019-04-06T00:17:47.030Z,14.68
2019-04-06T00:18:47.052Z,14.85
2019-04-06T00:19:47.083Z,14.77
2019-04-06T00:20:47.350Z,14.84
2019-04-06T00:21:46.847Z,14.73
2019-04-06T00:22:46.867Z,14.69
2019-04-06T00:23:46.889Z,14.72
2019-04-06T00:24:47.445Z,14.69
2019-04-06T00:25:49.254Z,14.63
2019-04-06T00:26:47.271Z,14.62
2019-04-06T00:27:47.239Z,14.62
2019-04-06T00:28:46.995Z,14.63
2019-04-06T00:29:47.026Z,14.54
2019-04-06T00:30:47.047Z,14.65
2019-04-06T00:31:47.321Z,14.63
2019-04-06T00:32:47.344Z,14.58
2019-04-06T00:33:47.107Z,14.51
2019-04-06T00:34:47.390Z,14.5
2019-04-06T00:35:47.411Z,14.51
2019-04-06T00:36:47.172Z,14.43
2019-04-06T00:37:47.451Z,14.41
2019-04-06T00:38:47.209Z,14.51
2019-04-06T00:39:47.251Z,14.48
2019-04-06T00:40:47.520Z,14.48
2019-04-06T00:41:47.292Z,14.36
2019-04-06T00:42:47.560Z,14.43
2019-04-06T00:43:47.577Z,14.47
2019-04-06T00:44:47.912Z,14.3
2019-04-06T00:45:47.626Z,14.4
2019-04-06T00:46:47.392Z,14.4
2019-04-06T00:47:47.465Z,14.28
2019-04-06T00:48:47.429Z,14.33
2019-04-06T00:49:47.710Z,14.32
2019-04-06T00:50:47.466Z,14.23
2019-04-06T00:51:47.490Z,14.35
2019-04-06T00:52:47.776Z,14.3
2019-04-06T00:53:47.796Z,14.25
2019-04-06T00:54:47.813Z,14.25
2019-04-06T00:55:57.630Z,14.26
2019-04-06T00:56:48.135Z,14.32
2019-04-06T00:57:48.139Z,14.26
2019-04-06T00:58:47.638Z,14.22
2019-04-06T00:59:47.664Z,14.2
2019-04-06T01:00:47.943Z,14.23
2019-04-06T01:01:47.701Z,14.18
2019-04-06T01:02:47.983Z,14.18
2019-04-06T01:03:48.005Z,14.23
2019-04-06T01:04:48.024Z,14.17
2019-04-06T01:05:48.049Z,14.17
2019-04-06T01:06:48.070Z,14.12
2019-04-06T01:07:48.150Z,14.07
2019-04-06T01:08:48.379Z,14.03
2019-04-06T01:09:48.415Z,14.04
2019-04-06T01:10:48.150Z,14.07
2019-04-06T01:11:47.974Z,14.05
2019-04-06T01:12:48.192Z,14.05
2019-04-06T01:13:47.955Z,13.97
2019-04-06T01:14:48.239Z,14
2019-04-06T01:15:48.257Z,14.07
2019-04-06T01:16:48.284Z,14.04
2019-04-06T01:17:48.586Z,13.96
2019-04-06T01:18:48.058Z,14.05
2019-04-06T01:19:48.342Z,13.97
2019-04-06T01:20:48.364Z,13.99
2019-04-06T01:21:48.383Z,13.87
2019-04-06T01:22:48.407Z,13.96
2019-04-06T01:23:48.163Z,13.83
2019-04-06T01:24:48.181Z,13.92
2019-04-06T01:25:48.203Z,13.87
2019-04-06T01:26:48.544Z,13.81
2019-04-06T01:27:48.518Z,13.85
2019-04-06T01:28:48.268Z,13.9
2019-04-06T01:29:48.565Z,13.85
2019-04-06T01:30:48.611Z,13.79
2019-04-06T01:31:48.592Z,13.78
2019-04-06T01:32:48.350Z,13.79
2019-04-06T01:33:48.371Z,13.74
2019-04-06T01:34:48.745Z,13.77
2019-04-06T01:35:48.681Z,13.71
2019-04-06T01:36:48.438Z,13.78
2019-04-06T01:37:48.721Z,13.7
2019-04-06T01:38:48.732Z,13.74
2019-04-06T01:39:48.510Z,13.7
2019-04-06T01:40:49.077Z,13.74
2019-04-06T01:41:49.072Z,13.79
2019-04-06T01:42:48.825Z,13.71
2019-04-06T01:43:48.936Z,13.72
2019-04-06T01:44:49.062Z,13.72
2019-04-06T01:45:48.880Z,13.71
2019-04-06T01:46:48.904Z,13.62
2019-04-06T01:47:48.768Z,13.72
2019-04-06T01:48:48.952Z,13.68
2019-04-06T01:49:48.963Z,13.67
2019-04-06T01:50:48.986Z,13.62
2019-04-06T01:51:49.012Z,13.59
2019-04-06T01:52:48.766Z,13.65
2019-04-06T01:53:49.417Z,13.67
2019-04-06T01:54:49.002Z,13.63
2019-04-06T01:55:48.832Z,13.59
2019-04-06T01:56:49.121Z,13.53
2019-04-06T01:57:48.870Z,13.59
2019-04-06T01:58:49.155Z,13.6
2019-04-06T01:59:49.176Z,13.63
2019-04-06T02:00:48.928Z,13.47
2019-04-06T02:01:49.311Z,13.6
2019-04-06T02:02:49.245Z,13.46
2019-04-06T02:03:49.516Z,13.46
2019-04-06T02:04:49.276Z,13.56
2019-04-06T02:05:49.036Z,13.6
2019-04-06T02:06:49.051Z,13.56
2019-04-06T02:07:49.737Z,13.49
2019-04-06T02:08:49.109Z,13.5
2019-04-06T02:09:49.127Z,13.47
2019-04-06T02:10:49.162Z,13.44
2019-04-06T02:11:49.447Z,13.47
2019-04-06T02:12:49.703Z,13.6
2019-04-06T02:13:49.247Z,13.42
2019-04-06T02:14:49.551Z,13.44
2019-04-06T02:15:49.242Z,13.44
2019-04-06T02:16:49.790Z,13.47
2019-04-06T02:17:49.282Z,13.39
2019-04-06T02:18:49.453Z,13.31
2019-04-06T02:19:50.015Z,13.41
2019-04-06T02:20:49.605Z,13.39
2019-04-06T02:21:49.629Z,13.39
2019-04-06T02:22:49.444Z,13.46
2019-04-06T02:23:49.410Z,13.42
2019-04-06T02:24:49.787Z,13.33
2019-04-06T02:25:49.447Z,13.33
2019-04-06T02:26:49.731Z,13.3
2019-04-06T02:27:50.021Z,13.33
2019-04-06T02:28:49.521Z,13.25
2019-04-06T02:29:49.850Z,13.3
2019-04-06T02:30:49.629Z,13.28
2019-04-06T02:31:50.048Z,13.3
2019-04-06T02:32:49.859Z,13.18
2019-04-06T02:33:49.625Z,13.18
2019-04-06T02:34:50.179Z,13.3
2019-04-06T02:35:49.969Z,13.13
2019-04-06T02:36:50.213Z,13.27
2019-04-06T02:37:49.957Z,13.23
2019-04-06T02:38:49.999Z,13.2
2019-04-06T02:39:50.071Z,13.22
2019-04-06T02:40:50.203Z,13.27
2019-04-06T02:41:50.303Z,13.22
2019-04-06T02:42:50.347Z,13.27
2019-04-06T02:43:50.513Z,13.2
2019-04-06T02:44:50.321Z,13.13
2019-04-06T02:45:50.411Z,13.16
2019-04-06T02:46:50.156Z,13.16
2019-04-06T02:47:50.173Z,13.15
2019-04-06T02:48:50.284Z,13.09
2019-04-06T02:49:50.125Z,13.19
2019-04-06T02:50:50.237Z,13.12
2019-04-06T02:51:50.509Z,13.13
2019-04-06T02:52:50.502Z,13.13
2019-04-06T02:53:50.136Z,13.11
2019-04-06T02:54:50.046Z,13.11
2019-04-06T02:55:50.793Z,13.18
2019-04-06T02:56:52.520Z,13.03
2019-04-06T02:57:50.111Z,13.15
2019-04-06T02:58:50.454Z,13.05
2019-04-06T02:59:50.687Z,13.11
2019-04-06T03:00:50.542Z,13.08
2019-04-06T03:01:50.464Z,13.05
2019-04-06T03:02:50.449Z,13.05
2019-04-06T03:03:50.493Z,13.03
2019-04-06T03:04:50.244Z,13.04
2019-04-06T03:05:50.540Z,13.03
2019-04-06T03:06:50.552Z,13.01
2019-04-06T03:07:50.859Z,13
2019-04-06T03:08:50.677Z,13.05
2019-04-06T03:09:50.615Z,13
2019-04-06T03:10:50.394Z,12.98
2019-04-06T03:11:50.650Z,13.01
2019-04-06T03:12:50.702Z,13.01
2019-04-06T03:13:50.720Z,12.97
2019-04-06T03:14:51.000Z,13.01
2019-04-06T03:15:50.892Z,12.97
2019-04-06T03:16:50.834Z,13.03
2019-04-06T03:17:50.773Z,12.9
2019-04-06T03:18:50.963Z,12.91
2019-04-06T03:19:50.552Z,12.93
2019-04-06T03:20:51.109Z,12.93
2019-04-06T03:21:51.176Z,12.93
2019-04-06T03:22:51.199Z,12.87
2019-04-06T03:23:56.501Z,12.95
2019-04-06T03:24:50.916Z,12.91
2019-04-06T03:25:51.092Z,12.9
2019-04-06T03:27:05.837Z,12.86
2019-04-06T03:27:50.756Z,12.9
2019-04-06T03:28:51.164Z,12.83
2019-04-06T03:30:02.685Z,12.87
2019-04-06T03:30:51.235Z,12.78
2019-04-06T03:31:51.100Z,12.91
2019-04-06T03:32:51.294Z,12.78
2019-04-06T03:33:51.467Z,12.8
2019-04-06T03:34:51.214Z,12.75
2019-04-06T03:35:54.888Z,12.75
2019-04-06T03:36:51.433Z,12.8
2019-04-06T03:37:51.180Z,12.76
2019-04-06T03:38:51.207Z,12.83
2019-04-06T03:39:51.334Z,12.82
2019-04-06T03:40:51.406Z,12.86
2019-04-06T03:41:51.268Z,12.8
2019-04-06T03:42:51.544Z,12.82
2019-04-06T03:43:51.307Z,12.64
2019-04-06T03:44:51.643Z,12.7
2019-04-06T03:45:51.506Z,12.67
2019-04-06T03:46:51.629Z,12.7
2019-04-06T03:47:51.549Z,12.68
2019-04-06T03:48:51.409Z,12.73
2019-04-06T03:49:51.509Z,12.76
2019-04-06T03:50:51.710Z,12.65
2019-04-06T03:51:51.762Z,12.73
2019-04-06T03:52:51.802Z,12.73
2019-04-06T03:53:51.242Z,12.75
2019-04-06T03:54:51.782Z,12.72
2019-04-06T03:55:51.372Z,12.73
2019-04-06T03:56:51.999Z,12.72
2019-04-06T03:57:51.329Z,12.75
2019-04-06T03:58:54.508Z,12.68
2019-04-06T03:59:51.377Z,12.75
2019-04-06T04:00:51.661Z,12.64
2019-04-06T04:01:51.671Z,12.6
2019-04-06T04:02:52.083Z,12.57
2019-04-06T04:03:51.701Z,12.61
2019-04-06T04:04:51.883Z,12.65
2019-04-06T04:05:52.086Z,12.6
2019-04-06T04:06:51.780Z,12.62
2019-04-06T04:07:52.233Z,12.62
2019-04-06T04:08:52.288Z,12.62
2019-04-06T04:09:51.905Z,12.72
2019-04-06T04:10:52.895Z,12.57
2019-04-06T04:11:51.950Z,12.67
2019-04-06T04:12:51.883Z,12.61
2019-04-06T04:13:52.417Z,12.57
2019-04-06T04:14:51.730Z,12.6
2019-04-06T04:15:52.224Z,12.61
2019-04-06T04:16:52.255Z,12.6
2019-04-06T04:17:51.731Z,12.64
2019-04-06T04:18:52.156Z,12.58
2019-04-06T04:19:52.181Z,12.58
2019-04-06T04:20:52.051Z,12.6
2019-04-06T04:21:52.074Z,12.6
2019-04-06T04:22:51.980Z,12.57
2019-04-06T04:23:52.126Z,12.46
2019-04-06T04:24:51.863Z,12.57
2019-04-06T04:25:52.217Z,12.54
2019-04-06T04:26:52.171Z,12.54
2019-04-06T04:27:52.449Z,12.53
2019-04-06T04:28:52.215Z,12.55
2019-04-06T04:29:51.973Z,12.5
2019-04-06T04:30:52.519Z,12.49
2019-04-06T04:31:52.552Z,12.5
2019-04-06T04:32:52.304Z,12.5
2019-04-06T04:33:52.636Z,12.54
2019-04-06T04:34:52.608Z,12.53
2019-04-06T04:35:52.774Z,12.45
2019-04-06T04:36:52.385Z,12.55
2019-04-06T04:37:52.115Z,12.46
2019-04-06T04:38:52.143Z,12.53
2019-04-06T04:39:52.628Z,12.55
2019-04-06T04:40:52.711Z,12.42
2019-04-06T04:41:52.982Z,12.39
2019-04-06T04:42:52.506Z,12.55
2019-04-06T04:43:52.767Z,12.45
2019-04-06T04:44:52.791Z,12.45
2019-04-06T04:45:52.554Z,12.46
2019-04-06T04:46:52.845Z,12.43
2019-04-06T04:47:54.888Z,12.45
2019-04-06T04:48:52.941Z,12.46
2019-04-06T04:49:52.497Z,12.45
2019-04-06T04:50:52.701Z,12.53
2019-04-06T04:51:52.925Z,12.45
2019-04-06T04:52:52.945Z,12.43
2019-04-06T04:53:52.750Z,12.43
2019-04-06T04:54:52.461Z,12.47
2019-04-06T04:55:52.474Z,12.42
2019-04-06T04:56:53.204Z,12.43
2019-04-06T04:57:52.551Z,12.42
2019-04-06T04:58:52.548Z,12.43
2019-04-06T04:59:53.149Z,12.4
2019-04-06T05:00:53.575Z,12.39
2019-04-06T05:01:52.865Z,12.4
2019-04-06T05:02:52.632Z,12.39
2019-04-06T05:03:52.895Z,12.42
2019-04-06T05:04:53.273Z,12.35
2019-04-06T05:05:52.954Z,12.39
2019-04-06T05:06:52.734Z,12.37
2019-04-06T05:07:52.979Z,12.35
2019-04-06T05:08:53.026Z,12.35
2019-04-06T05:09:52.769Z,12.35
2019-04-06T05:10:53.355Z,12.35
2019-04-06T05:11:53.912Z,12.35
2019-04-06T05:12:52.817Z,12.39
2019-04-06T05:13:52.837Z,12.39
2019-04-06T05:14:53.258Z,12.39
2019-04-06T05:15:52.879Z,12.4
2019-04-06T05:16:53.541Z,12.43
2019-04-06T05:17:53.182Z,12.36
2019-04-06T05:18:53.463Z,12.43
2019-04-06T05:19:52.954Z,12.43
2019-04-06T05:20:53.031Z,12.43
2019-04-06T05:21:52.993Z,12.43
2019-04-06T05:22:53.275Z,12.37
2019-04-06T05:23:53.355Z,12.37
2019-04-06T05:24:53.585Z,12.39
2019-04-06T05:25:53.341Z,12.37
2019-04-06T05:26:53.100Z,12.39
2019-04-06T05:27:57.764Z,12.49
2019-04-06T05:28:53.796Z,12.37
2019-04-06T05:29:53.212Z,12.39
2019-04-06T05:30:53.644Z,12.4
2019-04-06T05:31:53.464Z,12.42
2019-04-06T05:32:53.962Z,12.4
2019-04-06T05:33:53.247Z,12.45
2019-04-06T05:34:53.706Z,12.49
2019-04-06T05:35:53.816Z,12.46
2019-04-06T05:36:53.861Z,12.45
2019-04-06T05:37:53.899Z,12.49
2019-04-06T05:38:53.336Z,12.45
2019-04-06T05:39:53.634Z,12.46
2019-04-06T05:40:54.026Z,12.46
2019-04-06T05:41:55.551Z,12.43
2019-04-06T05:42:53.677Z,12.46
2019-04-06T05:43:53.699Z,12.47
2019-04-06T05:44:53.625Z,12.49
2019-04-06T05:45:53.728Z,12.39
2019-04-06T05:46:53.754Z,12.53
2019-04-06T05:47:53.638Z,12.45
2019-04-06T05:48:53.543Z,12.42
2019-04-06T05:49:53.551Z,12.49
2019-04-06T05:50:54.019Z,12.46
2019-04-06T05:51:54.355Z,12.55
2019-04-06T05:52:53.875Z,12.47
2019-04-06T05:53:53.897Z,12.42
2019-04-06T05:54:54.182Z,12.49
2019-04-06T05:55:53.987Z,12.46
2019-04-06T05:56:54.056Z,12.55
2019-04-06T05:58:09.654Z,12.45
2019-04-06T05:58:54.030Z,12.39
2019-04-06T05:59:54.019Z,12.46
2019-04-06T06:00:54.048Z,12.46
2019-04-06T06:01:54.519Z,12.45
2019-04-06T06:02:54.253Z,12.5
2019-04-06T06:03:53.848Z,12.45
2019-04-06T06:04:54.132Z,12.53
2019-04-06T06:05:53.906Z,12.45
2019-04-06T06:06:54.421Z,12.47
2019-04-06T06:07:54.180Z,12.4
2019-04-06T06:08:54.090Z,12.53
2019-04-06T06:09:53.965Z,12.5
2019-04-06T06:10:54.164Z,12.46
2019-04-06T06:11:55.578Z,12.55
2019-04-06T06:12:54.353Z,12.54
2019-04-06T06:13:54.558Z,12.42
2019-04-06T06:14:54.315Z,12.49
2019-04-06T06:15:54.135Z,12.55
2019-04-06T06:16:55.026Z,12.57
2019-04-06T06:17:54.295Z,12.54
2019-04-06T06:18:54.607Z,12.55
2019-04-06T06:19:54.262Z,12.55
2019-04-06T06:20:54.569Z,12.53
2019-04-06T06:21:54.714Z,12.61
2019-04-06T06:22:54.416Z,12.54
2019-04-06T06:23:54.859Z,12.53
2019-04-06T06:24:54.514Z,12.53
2019-04-06T06:25:54.295Z,12.53
2019-04-06T06:26:55.059Z,12.57
2019-04-06T06:27:54.834Z,12.46
2019-04-06T06:28:54.599Z,12.6
2019-04-06T06:29:54.883Z,12.55
2019-04-06T06:30:54.366Z,12.54
2019-04-06T06:31:54.400Z,12.55
2019-04-06T06:32:54.871Z,12.58
2019-04-06T06:33:54.955Z,12.58
2019-04-06T06:34:54.751Z,12.57
2019-04-06T06:35:54.728Z,12.57
2019-04-06T06:36:55.031Z,12.6
2019-04-06T06:37:54.718Z,12.6
2019-04-06T06:38:54.845Z,12.61
2019-04-06T06:39:54.838Z,12.58
2019-04-06T06:40:54.576Z,12.57
2019-04-06T06:41:54.855Z,12.55
2019-04-06T06:42:55.259Z,12.61
2019-04-06T06:43:54.893Z,12.61
2019-04-06T06:44:54.914Z,12.58
2019-04-06T06:45:54.930Z,12.55
2019-04-06T06:46:54.955Z,12.61
2019-04-06T06:47:54.716Z,12.58
2019-04-06T06:48:55.007Z,12.5
2019-04-06T06:49:55.013Z,12.6
2019-04-06T06:50:55.409Z,12.58
2019-04-06T06:51:54.940Z,12.61
2019-04-06T06:52:54.824Z,12.58
2019-04-06T06:53:55.459Z,12.6
2019-04-06T06:54:55.042Z,12.61
2019-04-06T06:55:57.920Z,12.6
2019-04-06T06:56:55.580Z,12.61
2019-04-06T06:57:54.910Z,12.53
2019-04-06T06:58:54.925Z,12.64
2019-04-06T06:59:55.210Z,12.61
2019-04-06T07:00:55.232Z,12.62
2019-04-06T07:01:54.999Z,12.61
2019-04-06T07:02:55.004Z,12.62
2019-04-06T07:03:55.576Z,12.62
2019-04-06T07:04:55.309Z,12.58
2019-04-06T07:05:55.543Z,12.7
2019-04-06T07:06:55.086Z,12.7
2019-04-06T07:07:55.375Z,12.75
2019-04-06T07:08:55.399Z,12.72
2019-04-06T07:10:04.365Z,12.72
2019-04-06T07:10:55.440Z,12.68
2019-04-06T07:11:55.195Z,12.7
2019-04-06T07:12:55.210Z,12.72
2019-04-06T07:13:55.496Z,12.72
2019-04-06T07:14:55.679Z,12.72
2019-04-06T07:15:55.482Z,12.61
2019-04-06T07:16:55.559Z,12.7
2019-04-06T07:17:56.008Z,12.75
2019-04-06T07:18:55.855Z,12.65
2019-04-06T07:19:55.902Z,12.73
2019-04-06T07:20:55.672Z,12.7
2019-04-06T07:21:55.750Z,12.72
2019-04-06T07:22:55.671Z,12.67
2019-04-06T07:23:55.429Z,12.8
2019-04-06T07:24:55.447Z,12.76
2019-04-06T07:26:03.186Z,12.75
2019-04-06T07:26:55.760Z,12.8
2019-04-06T07:27:55.773Z,12.78
2019-04-06T07:28:55.590Z,12.75
2019-04-06T07:29:55.577Z,12.93
2019-04-06T07:30:55.667Z,12.83
2019-04-06T07:31:55.588Z,12.85
2019-04-06T07:32:57.838Z,12.87
2019-04-06T07:33:55.628Z,12.86
2019-04-06T07:34:55.868Z,12.86
2019-04-06T07:35:55.791Z,12.83
2019-04-06T07:36:56.216Z,12.93
2019-04-06T07:37:55.976Z,12.9
2019-04-06T07:38:55.946Z,12.9
2019-04-06T07:39:55.766Z,13
2019-04-06T07:40:56.072Z,12.94
2019-04-06T07:41:56.195Z,13.01
2019-04-06T07:42:56.246Z,13
2019-04-06T07:43:56.110Z,13.04
2019-04-06T07:44:56.371Z,13.05
2019-04-06T07:45:56.422Z,13.05
2019-04-06T07:46:56.164Z,13.12
2019-04-06T07:47:56.175Z,13.12
2019-04-06T07:48:55.935Z,13.12
2019-04-06T07:49:56.218Z,13.27
2019-04-06T07:50:56.048Z,13.23
2019-04-06T07:51:56.256Z,13.2
2019-04-06T07:52:56.461Z,13.25
2019-04-06T07:53:56.437Z,13.19
2019-04-06T07:54:56.316Z,13.35
2019-04-06T07:55:56.406Z,13.38
2019-04-06T07:56:56.572Z,13.28
2019-04-06T07:57:56.190Z,13.25
2019-04-06T07:58:56.674Z,13.25
2019-04-06T07:59:56.423Z,13.38
2019-04-06T08:00:56.445Z,13.37
2019-04-06T08:01:56.688Z,13.39
2019-04-06T08:02:56.760Z,13.41
2019-04-06T08:03:56.242Z,13.47
2019-04-06T08:04:56.821Z,13.37
2019-04-06T08:05:56.783Z,13.41
2019-04-06T08:06:56.852Z,13.47
2019-04-06T08:07:56.589Z,13.47
2019-04-06T08:08:56.830Z,13.52
2019-04-06T08:09:56.815Z,13.52
2019-04-06T08:10:57.154Z,13.54
2019-04-06T08:11:56.738Z,13.49
2019-04-06T08:12:56.691Z,13.68
2019-04-06T08:13:56.703Z,13.63
2019-04-06T08:14:57.492Z,13.62
2019-04-06T08:15:57.079Z,13.6
2019-04-06T08:16:56.849Z,13.65
2019-04-06T08:17:56.531Z,13.62
2019-04-06T08:18:57.323Z,13.71
2019-04-06T08:19:56.832Z,13.74
2019-04-06T08:20:56.601Z,13.74
2019-04-06T08:21:57.121Z,13.75
2019-04-06T08:22:56.896Z,13.71
2019-04-06T08:23:57.278Z,13.75
2019-04-06T08:24:57.163Z,13.81
2019-04-06T08:25:57.042Z,13.86
2019-04-06T08:26:56.742Z,13.74
2019-04-06T08:27:56.736Z,13.78
2019-04-06T08:29:06.221Z,13.83
2019-04-06T08:29:56.815Z,13.92
2019-04-06T08:30:57.057Z,13.83
2019-04-06T08:31:57.082Z,13.85
2019-04-06T08:32:57.104Z,13.92
2019-04-06T08:33:57.376Z,13.95
2019-04-06T08:34:57.407Z,14.08
2019-04-06T08:35:57.169Z,14.03
2019-04-06T08:36:56.961Z,14.03
2019-04-06T08:37:57.205Z,14.07
2019-04-06T08:38:56.973Z,14.08
2019-04-06T08:39:57.347Z,14.11
2019-04-06T08:40:57.283Z,14.14
2019-04-06T08:41:57.309Z,14.17
2019-04-06T08:42:57.050Z,14.22
2019-04-06T08:43:57.071Z,14.2
2019-04-06T08:44:57.352Z,14.2
2019-04-06T08:45:57.382Z,14.2
2019-04-06T08:46:57.392Z,14.23
2019-04-06T08:47:57.324Z,14.23
2019-04-06T08:48:57.177Z,14.29
2019-04-06T08:49:57.717Z,14.32
2019-04-06T08:50:57.479Z,14.32
2019-04-06T08:51:57.504Z,14.32
2019-04-06T08:52:57.884Z,14.29
2019-04-06T08:53:57.661Z,14.32
2019-04-06T08:54:57.563Z,14.28
2019-04-06T08:55:57.775Z,14.4
2019-04-06T08:56:57.452Z,14.26
2019-04-06T08:57:57.620Z,14.36
2019-04-06T08:58:57.647Z,14.29
2019-04-06T08:59:57.670Z,14.44
2019-04-06T09:00:58.148Z,14.4
2019-04-06T09:01:58.033Z,14.4
2019-04-06T09:02:57.730Z,14.45
2019-04-06T09:03:57.963Z,14.48
2019-04-06T09:04:57.512Z,14.51
2019-04-06T09:05:58.287Z,14.47
2019-04-06T09:06:57.578Z,14.47
2019-04-06T09:07:58.320Z,14.47
2019-04-06T09:08:58.127Z,14.44
2019-04-06T09:09:58.366Z,14.51
2019-04-06T09:10:58.161Z,14.58
2019-04-06T09:11:57.949Z,14.43
2019-04-06T09:12:58.012Z,14.51
2019-04-06T09:13:57.925Z,14.36
2019-04-06T09:14:58.179Z,14.51
2019-04-06T09:15:58.266Z,14.48
2019-04-06T09:16:58.029Z,14.37
2019-04-06T09:17:58.054Z,14.32
2019-04-06T09:18:58.577Z,14.4
2019-04-06T09:19:58.199Z,14.41
2019-04-06T09:20:58.120Z,14.36
2019-04-06T09:21:58.191Z,14.47
2019-04-06T09:22:57.903Z,14.47
2019-04-06T09:24:01.086Z,14.44
2019-04-06T09:24:58.292Z,14.44
2019-04-06T09:25:58.441Z,14.47
2019-04-06T09:26:58.316Z,14.45
2019-04-06T09:27:58.259Z,14.53
2019-04-06T09:28:59.602Z,14.48
2019-04-06T09:29:58.038Z,14.53
2019-04-06T09:30:58.796Z,14.51
2019-04-06T09:31:58.802Z,14.45
2019-04-06T09:32:58.392Z,14.47
2019-04-06T09:33:58.390Z,14.58
2019-04-06T09:34:58.975Z,14.58
2019-04-06T09:35:58.436Z,14.58
2019-04-06T09:36:58.710Z,14.55
2019-04-06T09:37:58.833Z,14.5
2019-04-06T09:38:58.765Z,14.59
2019-04-06T09:39:58.257Z,14.63
2019-04-06T09:40:58.511Z,14.47
2019-04-06T09:41:58.559Z,14.55
2019-04-06T09:42:58.338Z,14.62
2019-04-06T09:43:58.607Z,14.58
2019-04-06T09:44:58.356Z,14.62
2019-04-06T09:45:58.383Z,14.6
2019-04-06T09:46:58.667Z,14.62
2019-04-06T09:47:58.742Z,14.7
2019-04-06T09:48:58.445Z,14.69
2019-04-06T09:49:58.916Z,14.72
2019-04-06T09:50:58.481Z,14.78
2019-04-06T09:51:59.264Z,14.78
2019-04-06T09:52:59.299Z,14.73
2019-04-06T09:54:10.282Z,14.78
2019-04-06T09:54:58.832Z,14.79
2019-04-06T09:55:59.128Z,14.78
2019-04-06T09:56:58.612Z,14.69
2019-04-06T09:57:59.015Z,14.85
2019-04-06T09:58:59.178Z,14.84
2019-04-06T09:59:59.205Z,14.81
2019-04-06T10:00:58.699Z,14.86
2019-04-06T10:01:59.045Z,14.86
2019-04-06T10:02:59.082Z,14.88
2019-04-06T10:03:59.024Z,14.92
2019-04-06T10:04:59.059Z,14.99
2019-04-06T10:05:59.329Z,15.03
2019-04-06T10:06:59.090Z,15.03
2019-04-06T10:07:58.926Z,15.1
2019-04-06T10:08:59.133Z,15.1
2019-04-06T10:09:59.428Z,15.15
2019-04-06T10:10:59.479Z,15.11
2019-04-06T10:11:59.365Z,15.07
2019-04-06T10:12:59.220Z,15.1
2019-04-06T10:13:59.239Z,15.07
2019-04-06T10:14:59.688Z,15.07
2019-04-06T10:15:59.376Z,15.09
2019-04-06T10:16:59.580Z,15.04
2019-04-06T10:17:59.490Z,15
2019-04-06T10:18:59.082Z,14.99
2019-04-06T10:20:00.006Z,15.04
2019-04-06T10:20:59.133Z,14.99
2019-04-06T10:21:59.148Z,15.02
2019-04-06T10:22:59.552Z,15.03
2019-04-06T10:24:00.044Z,14.99
2019-04-06T10:24:59.619Z,14.94
2019-04-06T10:25:59.853Z,15.02
2019-04-06T10:26:59.786Z,15.09
2019-04-06T10:27:59.448Z,15.07
2019-04-06T10:28:59.563Z,14.97
2019-04-06T10:29:59.579Z,15
2019-04-06T10:30:59.845Z,15.02
2019-04-06T10:31:59.865Z,15.04
2019-04-06T10:33:00.077Z,15.03
2019-04-06T10:33:59.669Z,15.02
2019-04-06T10:34:59.684Z,15
2019-04-06T10:35:59.928Z,15.03
2019-04-06T10:37:00.001Z,15.1
2019-04-06T10:37:59.971Z,15.15
2019-04-06T10:39:00.228Z,15.07
2019-04-06T10:39:59.795Z,15.04
2019-04-06T10:41:00.389Z,15.09
2019-04-06T10:41:59.982Z,15.09
2019-04-06T10:42:59.869Z,15.1
2019-04-06T10:44:00.317Z,15.1
2019-04-06T10:44:59.643Z,15.09
2019-04-06T10:46:00.077Z,15.06
2019-04-06T10:47:00.031Z,15.15
2019-04-06T10:47:59.968Z,15.1
2019-04-06T10:48:59.965Z,15.04
2019-04-06T10:50:00.276Z,15.06
2019-04-06T10:50:59.775Z,15.09
2019-04-06T10:52:00.058Z,15.11
2019-04-06T10:53:00.080Z,15.17
2019-04-06T10:54:00.104Z,15.14
2019-04-06T10:55:00.286Z,15.07
2019-04-06T10:56:00.675Z,15.09
2019-04-06T10:57:00.353Z,15.07
2019-04-06T10:58:00.215Z,15.03
2019-04-06T10:59:02.714Z,15.1
2019-04-06T11:00:07.793Z,15
2019-04-06T11:01:00.276Z,15.07
2019-04-06T11:02:00.267Z,14.97
2019-04-06T11:03:00.226Z,15
2019-04-06T11:04:00.307Z,14.92
2019-04-06T11:05:00.368Z,14.94
2019-04-06T11:06:00.253Z,14.96
2019-04-06T11:07:00.374Z,15.02
2019-04-06T11:08:00.914Z,14.94
2019-04-06T11:09:00.716Z,14.99
2019-04-06T11:10:00.194Z,14.92
2019-04-06T11:11:02.441Z,15
2019-04-06T11:12:01.195Z,14.99
2019-04-06T11:13:00.593Z,15.03
2019-04-06T11:14:00.684Z,14.97
2019-04-06T11:15:01.078Z,14.99
2019-04-06T11:16:00.314Z,15.03
2019-04-06T11:17:00.329Z,15.04
2019-04-06T11:18:01.181Z,15.02
2019-04-06T11:19:00.630Z,14.99
2019-04-06T11:20:00.476Z,15.02
2019-04-06T11:21:00.684Z,15.04
2019-04-06T11:22:00.691Z,15.07
2019-04-06T11:23:00.749Z,15.03
2019-04-06T11:24:01.004Z,15.09
2019-04-06T11:25:00.720Z,15.15
2019-04-06T11:26:00.791Z,15.07
2019-04-06T11:27:00.834Z,15.07
2019-04-06T11:28:03.568Z,15.09
2019-04-06T11:29:01.012Z,15.1
2019-04-06T11:30:15.260Z,15.09
2019-04-06T11:31:01.161Z,15.07
2019-04-06T11:32:01.301Z,15.1
2019-04-06T11:33:00.934Z,15.11
2019-04-06T11:34:00.697Z,15.15
2019-04-06T11:35:01.321Z,15.17
2019-04-06T11:36:00.997Z,15.19
2019-04-06T11:37:01.353Z,15.15
2019-04-06T11:38:01.163Z,15.14
2019-04-06T11:39:01.651Z,15.21
2019-04-06T11:40:01.091Z,15.14
2019-04-06T11:41:00.892Z,15.15
2019-04-06T11:42:01.126Z,15.15
2019-04-06T11:43:00.888Z,15.09
2019-04-06T11:44:01.792Z,15.21
2019-04-06T11:45:01.190Z,15.15
2019-04-06T11:46:00.950Z,15.19
2019-04-06T11:47:01.495Z,15.19
2019-04-06T11:48:01.527Z,15.14
2019-04-06T11:49:01.279Z,15.21
2019-04-06T11:50:01.323Z,15.21
2019-04-06T11:51:01.069Z,15.19
2019-04-06T11:52:01.601Z,15.22
2019-04-06T11:53:01.101Z,15.21
2019-04-06T11:54:01.390Z,15.24
2019-04-06T11:55:01.633Z,15.17
2019-04-06T11:56:01.568Z,15.27
2019-04-06T11:57:01.459Z,15.19
2019-04-06T11:58:01.470Z,15.25
2019-04-06T11:59:01.951Z,15.25
2019-04-06T12:00:01.253Z,15.27
2019-04-06T12:01:03.732Z,15.31
2019-04-06T12:02:01.558Z,15.35
2019-04-06T12:03:01.847Z,15.29
2019-04-06T12:04:01.606Z,15.27
2019-04-06T12:05:02.075Z,15.31
2019-04-06T12:06:01.647Z,15.22
2019-04-06T12:07:03.879Z,15.39
2019-04-06T12:08:02.062Z,15.28
2019-04-06T12:09:02.228Z,15.47
2019-04-06T12:10:01.732Z,15.37
2019-04-06T12:11:02.185Z,15.35
2019-04-06T12:12:01.824Z,15.4
2019-04-06T12:13:02.297Z,15.43
2019-04-06T12:14:01.975Z,15.46
2019-04-06T12:15:01.851Z,15.46
2019-04-06T12:16:01.914Z,15.51
2019-04-06T12:17:02.239Z,15.57
2019-04-06T12:18:02.541Z,15.57
2019-04-06T12:19:01.930Z,15.55
2019-04-06T12:20:02.268Z,15.58
2019-04-06T12:21:01.982Z,15.59
2019-04-06T12:22:02.003Z,15.55
2019-04-06T12:23:02.389Z,15.68
2019-04-06T12:24:02.540Z,15.65
2019-04-06T12:25:02.697Z,15.7
2019-04-06T12:26:02.628Z,15.72
2019-04-06T12:27:01.840Z,15.67
2019-04-06T12:28:02.538Z,15.62
2019-04-06T12:29:02.583Z,15.73
2019-04-06T12:30:02.209Z,15.79
2019-04-06T12:31:02.192Z,15.68
2019-04-06T12:32:02.155Z,15.73
2019-04-06T12:33:02.747Z,15.75
2019-04-06T12:34:02.887Z,15.84
2019-04-06T12:35:02.277Z,15.82
2019-04-06T12:36:02.565Z,15.79
2019-04-06T12:37:02.826Z,15.79
2019-04-06T12:38:02.914Z,15.86
2019-04-06T12:39:02.101Z,15.82
2019-04-06T12:40:02.525Z,15.84
2019-04-06T12:41:02.417Z,15.98
2019-04-06T12:42:02.481Z,16
2019-04-06T12:43:02.812Z,15.94
2019-04-06T12:44:02.474Z,15.9
2019-04-06T12:45:02.807Z,15.97
2019-04-06T12:46:03.023Z,15.98
2019-04-06T12:47:02.279Z,15.94
2019-04-06T12:48:02.851Z,16.08
2019-04-06T12:49:02.588Z,16.01
2019-04-06T12:50:02.883Z,16.04
2019-04-06T12:51:02.985Z,16.1
2019-04-06T12:52:02.391Z,16.1
2019-04-06T12:53:02.945Z,16.1
2019-04-06T12:54:02.702Z,16.17
2019-04-06T12:55:02.717Z,16.16
2019-04-06T12:56:02.744Z,16.13
2019-04-06T12:57:03.020Z,16.13
2019-04-06T12:58:03.062Z,16.29